sensor_id;sensor_type;location;lat;lon;timestamp;P1;durP1;ratioP1;P2;durP2;ratioP2
8568;SDS011;4322;51.104;-4.162;2022-10-12T00:00:37;0.70;;;0.70;;
8568;SDS011;4322;51.104;-4.162;2022-10-12T00:03:05;0.70;;;0.70;;
8568;SDS011;4322;51.104;-4.162;2022-10-12T00:05:33;0.60;;;0.60;;
8568;SDS011;4322;51.104;-4.162;2022-10-12T00:08:01;0.70;;;0.70;;
8568;SDS011;4322;51.104;-4.162;2022-10-12T00:10:29;0.60;;;0.60;;
8568;SDS011;4322;51.104;-4.162;2022-10-12T00:12:57;0.60;;;0.60;;
8568;SDS011;4322;51.104;-4.162;2022-10-12T00:15:27;0.60;;;0.60;;
8568;SDS011;4322;51.104;-4.162;2022-10-12T00:17:54;0.53;;;0.53;;
8568;SDS011;4322;51.104;-4.162;2022-10-12T00:20:22;0.60;;;0.60;;
8568;SDS011;4322;51.104;-4.162;2022-10-12T00:22:50;0.50;;;0.50;;
8568;SDS011;4322;51.104;-4.162;2022-10-12T00:25:18;0.50;;;0.50;;
8568;SDS011;4322;51.104;-4.162;2022-10-12T00:27:46;0.50;;;0.50;;
8568;SDS011;4322;51.104;-4.162;2022-10-12T00:30:14;0.50;;;0.50;;
8568;SDS011;4322;51.104;-4.162;2022-10-12T00:32:44;0.40;;;0.40;;
8568;SDS011;4322;51.104;-4.162;2022-10-12T00:35:11;0.43;;;0.43;;
8568;SDS011;4322;51.104;-4.162;2022-10-12T00:37:39;0.60;;;0.60;;
8568;SDS011;4322;51.104;-4.162;2022-10-12T00:40:08;0.50;;;0.50;;
8568;SDS011;4322;51.104;-4.162;2022-10-12T00:42:36;0.50;;;0.50;;
8568;SDS011;4322;51.104;-4.162;2022-10-12T00:45:05;0.60;;;0.60;;
8568;SDS011;4322;51.104;-4.162;2022-10-12T00:47:36;0.60;;;0.60;;
8568;SDS011;4322;51.104;-4.162;2022-10-12T00:50:09;0.50;;;0.50;;
8568;SDS011;4322;51.104;-4.162;2022-10-12T00:52:42;0.50;;;0.50;;
8568;SDS011;4322;51.104;-4.162;2022-10-12T00:55:14;0.50;;;0.50;;
8568;SDS011;4322;51.104;-4.162;2022-10-12T00:57:45;0.50;;;0.50;;
8568;SDS011;4322;51.104;-4.162;2022-10-12T01:00:14;0.60;;;0.60;;
8568;SDS011;4322;51.104;-4.162;2022-10-12T01:02:43;0.40;;;0.40;;
8568;SDS011;4322;51.104;-4.162;2022-10-12T01:05:15;0.50;;;0.50;;
8568;SDS011;4322;51.104;-4.162;2022-10-12T01:07:45;0.50;;;0.50;;
8568;SDS011;4322;51.104;-4.162;2022-10-12T01:10:13;0.50;;;0.50;;
8568;SDS011;4322;51.104;-4.162;2022-10-12T01:12:41;0.50;;;0.50;;
8568;SDS011;4322;51.104;-4.162;2022-10-12T01:15:11;0.60;;;0.60;;
8568;SDS011;4322;51.104;-4.162;2022-10-12T01:17:42;0.50;;;0.50;;
8568;SDS011;4322;51.104;-4.162;2022-10-12T01:20:41;0.50;;;0.50;;
8568;SDS011;4322;51.104;-4.162;2022-10-12T01:23:22;0.50;;;0.50;;
8568;SDS011;4322;51.104;-4.162;2022-10-12T01:26:21;0.50;;;0.50;;
8568;SDS011;4322;51.104;-4.162;2022-10-12T01:29:06;0.50;;;0.50;;
8568;SDS011;4322;51.104;-4.162;2022-10-12T01:31:48;0.60;;;0.60;;
8568;SDS011;4322;51.104;-4.162;2022-10-12T01:34:24;0.60;;;0.60;;
8568;SDS011;4322;51.104;-4.162;2022-10-12T01:37:00;0.50;;;0.50;;
8568;SDS011;4322;51.104;-4.162;2022-10-12T01:39:37;0.60;;;0.60;;
8568;SDS011;4322;51.104;-4.162;2022-10-12T01:42:12;0.60;;;0.60;;
8568;SDS011;4322;51.104;-4.162;2022-10-12T01:44:45;0.50;;;0.50;;
8568;SDS011;4322;51.104;-4.162;2022-10-12T01:47:14;0.70;;;0.70;;
8568;SDS011;4322;51.104;-4.162;2022-10-12T01:49:42;0.50;;;0.50;;
8568;SDS011;4322;51.104;-4.162;2022-10-12T01:52:15;0.50;;;0.50;;
8568;SDS011;4322;51.104;-4.162;2022-10-12T01:54:55;0.50;;;0.50;;
8568;SDS011;4322;51.104;-4.162;2022-10-12T01:57:33;0.50;;;0.50;;
8568;SDS011;4322;51.104;-4.162;2022-10-12T02:00:08;0.50;;;0.50;;
8568;SDS011;4322;51.104;-4.162;2022-10-12T02:02:42;0.70;;;0.70;;
8568;SDS011;4322;51.104;-4.162;2022-10-12T02:05:18;0.60;;;0.60;;
8568;SDS011;4322;51.104;-4.162;2022-10-12T02:07:54;0.60;;;0.60;;
8568;SDS011;4322;51.104;-4.162;2022-10-12T02:10:27;0.50;;;0.50;;
8568;SDS011;4322;51.104;-4.162;2022-10-12T02:12:59;0.50;;;0.50;;
8568;SDS011;4322;51.104;-4.162;2022-10-12T02:15:32;0.70;;;0.70;;
8568;SDS011;4322;51.104;-4.162;2022-10-12T02:18:04;0.50;;;0.50;;
8568;SDS011;4322;51.104;-4.162;2022-10-12T02:20:34;0.40;;;0.40;;
8568;SDS011;4322;51.104;-4.162;2022-10-12T02:23:05;0.60;;;0.60;;
8568;SDS011;4322;51.104;-4.162;2022-10-12T02:25:34;0.70;;;0.70;;
8568;SDS011;4322;51.104;-4.162;2022-10-12T02:28:03;0.57;;;0.57;;
8568;SDS011;4322;51.104;-4.162;2022-10-12T02:30:36;0.50;;;0.50;;
8568;SDS011;4322;51.104;-4.162;2022-10-12T02:33:12;0.70;;;0.70;;
8568;SDS011;4322;51.104;-4.162;2022-10-12T02:35:49;0.57;;;0.57;;
8568;SDS011;4322;51.104;-4.162;2022-10-12T02:38:24;0.70;;;0.70;;
8568;SDS011;4322;51.104;-4.162;2022-10-12T02:40:59;0.60;;;0.60;;
8568;SDS011;4322;51.104;-4.162;2022-10-12T02:43:32;0.73;;;0.73;;
8568;SDS011;4322;51.104;-4.162;2022-10-12T02:46:06;0.63;;;0.63;;
8568;SDS011;4322;51.104;-4.162;2022-10-12T02:48:38;0.70;;;0.70;;
8568;SDS011;4322;51.104;-4.162;2022-10-12T02:51:07;0.70;;;0.70;;
8568;SDS011;4322;51.104;-4.162;2022-10-12T02:53:37;0.60;;;0.60;;
8568;SDS011;4322;51.104;-4.162;2022-10-12T02:56:06;0.70;;;0.70;;
8568;SDS011;4322;51.104;-4.162;2022-10-12T02:58:37;0.63;;;0.63;;
8568;SDS011;4322;51.104;-4.162;2022-10-12T03:01:04;0.80;;;0.80;;
8568;SDS011;4322;51.104;-4.162;2022-10-12T03:03:32;0.60;;;0.60;;
8568;SDS011;4322;51.104;-4.162;2022-10-12T03:06:02;0.57;;;0.57;;
8568;SDS011;4322;51.104;-4.162;2022-10-12T03:08:30;0.60;;;0.60;;
8568;SDS011;4322;51.104;-4.162;2022-10-12T03:10:59;0.60;;;0.60;;
8568;SDS011;4322;51.104;-4.162;2022-10-12T03:13:28;0.70;;;0.70;;
8568;SDS011;4322;51.104;-4.162;2022-10-12T03:16:00;0.63;;;0.63;;
8568;SDS011;4322;51.104;-4.162;2022-10-12T03:18:28;0.60;;;0.60;;
8568;SDS011;4322;51.104;-4.162;2022-10-12T03:20:56;0.53;;;0.53;;
8568;SDS011;4322;51.104;-4.162;2022-10-12T03:23:25;0.70;;;0.70;;
8568;SDS011;4322;51.104;-4.162;2022-10-12T03:25:54;0.60;;;0.60;;
8568;SDS011;4322;51.104;-4.162;2022-10-12T03:28:22;0.60;;;0.60;;
8568;SDS011;4322;51.104;-4.162;2022-10-12T03:30:50;0.60;;;0.60;;
8568;SDS011;4322;51.104;-4.162;2022-10-12T03:33:18;0.67;;;0.67;;
8568;SDS011;4322;51.104;-4.162;2022-10-12T03:35:46;0.60;;;0.60;;
8568;SDS011;4322;51.104;-4.162;2022-10-12T03:38:15;0.70;;;0.70;;
8568;SDS011;4322;51.104;-4.162;2022-10-12T03:40:45;0.50;;;0.50;;
8568;SDS011;4322;51.104;-4.162;2022-10-12T03:43:13;0.70;;;0.70;;
8568;SDS011;4322;51.104;-4.162;2022-10-12T03:45:42;0.77;;;0.77;;
8568;SDS011;4322;51.104;-4.162;2022-10-12T03:48:10;0.60;;;0.60;;
8568;SDS011;4322;51.104;-4.162;2022-10-12T03:50:38;0.70;;;0.70;;
8568;SDS011;4322;51.104;-4.162;2022-10-12T03:53:06;0.80;;;0.80;;
8568;SDS011;4322;51.104;-4.162;2022-10-12T03:55:34;0.80;;;0.80;;
8568;SDS011;4322;51.104;-4.162;2022-10-12T03:58:04;0.80;;;0.80;;
8568;SDS011;4322;51.104;-4.162;2022-10-12T04:00:32;0.60;;;0.60;;
8568;SDS011;4322;51.104;-4.162;2022-10-12T04:03:00;0.60;;;0.60;;
8568;SDS011;4322;51.104;-4.162;2022-10-12T04:05:28;0.67;;;0.67;;
8568;SDS011;4322;51.104;-4.162;2022-10-12T04:07:56;0.60;;;0.60;;
8568;SDS011;4322;51.104;-4.162;2022-10-12T04:10:24;0.80;;;0.80;;
8568;SDS011;4322;51.104;-4.162;2022-10-12T04:12:52;0.80;;;0.80;;
8568;SDS011;4322;51.104;-4.162;2022-10-12T04:15:21;0.70;;;0.70;;
8568;SDS011;4322;51.104;-4.162;2022-10-12T04:17:49;0.80;;;0.80;;
8568;SDS011;4322;51.104;-4.162;2022-10-12T04:20:17;0.70;;;0.70;;
8568;SDS011;4322;51.104;-4.162;2022-10-12T04:22:45;0.60;;;0.60;;
8568;SDS011;4322;51.104;-4.162;2022-10-12T04:25:13;0.60;;;0.60;;
8568;SDS011;4322;51.104;-4.162;2022-10-12T04:27:41;0.70;;;0.70;;
8568;SDS011;4322;51.104;-4.162;2022-10-12T04:30:10;0.70;;;0.70;;
8568;SDS011;4322;51.104;-4.162;2022-10-12T04:32:40;0.80;;;0.80;;
8568;SDS011;4322;51.104;-4.162;2022-10-12T04:35:08;0.73;;;0.73;;
8568;SDS011;4322;51.104;-4.162;2022-10-12T04:37:36;0.60;;;0.60;;
8568;SDS011;4322;51.104;-4.162;2022-10-12T04:40:05;0.77;;;0.77;;
8568;SDS011;4322;51.104;-4.162;2022-10-12T04:42:33;0.80;;;0.80;;
8568;SDS011;4322;51.104;-4.162;2022-10-12T04:45:01;0.70;;;0.70;;
8568;SDS011;4322;51.104;-4.162;2022-10-12T04:47:29;0.73;;;0.73;;
8568;SDS011;4322;51.104;-4.162;2022-10-12T04:49:58;0.83;;;0.83;;
8568;SDS011;4322;51.104;-4.162;2022-10-12T04:52:26;0.80;;;0.80;;
8568;SDS011;4322;51.104;-4.162;2022-10-12T04:54:54;0.70;;;0.70;;
8568;SDS011;4322;51.104;-4.162;2022-10-12T04:57:22;0.77;;;0.77;;
8568;SDS011;4322;51.104;-4.162;2022-10-12T04:59:50;0.80;;;0.80;;
8568;SDS011;4322;51.104;-4.162;2022-10-12T05:02:18;1.00;;;1.00;;
8568;SDS011;4322;51.104;-4.162;2022-10-12T05:04:46;0.90;;;0.90;;
8568;SDS011;4322;51.104;-4.162;2022-10-12T05:07:16;0.90;;;0.90;;
8568;SDS011;4322;51.104;-4.162;2022-10-12T05:09:44;0.90;;;0.90;;
8568;SDS011;4322;51.104;-4.162;2022-10-12T05:12:12;1.00;;;1.00;;
8568;SDS011;4322;51.104;-4.162;2022-10-12T05:14:40;0.93;;;0.93;;
8568;SDS011;4322;51.104;-4.162;2022-10-12T05:17:09;1.00;;;1.00;;
8568;SDS011;4322;51.104;-4.162;2022-10-12T05:19:37;1.00;;;1.00;;
8568;SDS011;4322;51.104;-4.162;2022-10-12T05:22:05;0.80;;;0.80;;
8568;SDS011;4322;51.104;-4.162;2022-10-12T05:24:34;1.00;;;1.00;;
8568;SDS011;4322;51.104;-4.162;2022-10-12T05:27:05;1.00;;;1.00;;
8568;SDS011;4322;51.104;-4.162;2022-10-12T05:29:32;0.80;;;0.80;;
8568;SDS011;4322;51.104;-4.162;2022-10-12T05:32:00;0.80;;;0.80;;
8568;SDS011;4322;51.104;-4.162;2022-10-12T05:34:28;1.00;;;1.00;;
8568;SDS011;4322;51.104;-4.162;2022-10-12T05:36:57;0.90;;;0.90;;
8568;SDS011;4322;51.104;-4.162;2022-10-12T05:39:25;0.90;;;0.90;;
8568;SDS011;4322;51.104;-4.162;2022-10-12T05:41:54;1.00;;;1.00;;
8568;SDS011;4322;51.104;-4.162;2022-10-12T05:44:22;1.10;;;1.10;;
8568;SDS011;4322;51.104;-4.162;2022-10-12T05:46:50;1.10;;;1.10;;
8568;SDS011;4322;51.104;-4.162;2022-10-12T05:49:18;1.03;;;1.03;;
8568;SDS011;4322;51.104;-4.162;2022-10-12T05:51:46;1.30;;;1.30;;
8568;SDS011;4322;51.104;-4.162;2022-10-12T05:54:14;1.07;;;1.07;;
8568;SDS011;4322;51.104;-4.162;2022-10-12T05:56:42;1.10;;;1.10;;
8568;SDS011;4322;51.104;-4.162;2022-10-12T05:59:11;1.10;;;1.10;;
8568;SDS011;4322;51.104;-4.162;2022-10-12T06:01:39;1.20;;;1.20;;
8568;SDS011;4322;51.104;-4.162;2022-10-12T06:04:07;1.30;;;1.30;;
8568;SDS011;4322;51.104;-4.162;2022-10-12T06:06:36;1.10;;;1.10;;
8568;SDS011;4322;51.104;-4.162;2022-10-12T06:09:04;1.20;;;1.20;;
8568;SDS011;4322;51.104;-4.162;2022-10-12T06:11:32;1.20;;;1.20;;
8568;SDS011;4322;51.104;-4.162;2022-10-12T06:14:02;1.20;;;1.20;;
8568;SDS011;4322;51.104;-4.162;2022-10-12T06:16:31;1.20;;;1.20;;
8568;SDS011;4322;51.104;-4.162;2022-10-12T06:18:59;1.20;;;1.20;;
8568;SDS011;4322;51.104;-4.162;2022-10-12T06:21:27;1.20;;;1.20;;
8568;SDS011;4322;51.104;-4.162;2022-10-12T06:23:59;1.27;;;1.27;;
8568;SDS011;4322;51.104;-4.162;2022-10-12T06:26:28;1.40;;;1.40;;
8568;SDS011;4322;51.104;-4.162;2022-10-12T06:28:56;1.30;;;1.30;;
8568;SDS011;4322;51.104;-4.162;2022-10-12T06:31:26;1.20;;;1.20;;
8568;SDS011;4322;51.104;-4.162;2022-10-12T06:33:55;1.40;;;1.40;;
8568;SDS011;4322;51.104;-4.162;2022-10-12T06:36:23;1.37;;;1.37;;
8568;SDS011;4322;51.104;-4.162;2022-10-12T06:38:51;1.30;;;1.30;;
8568;SDS011;4322;51.104;-4.162;2022-10-12T06:41:19;1.20;;;1.20;;
8568;SDS011;4322;51.104;-4.162;2022-10-12T06:43:47;1.50;;;1.50;;
8568;SDS011;4322;51.104;-4.162;2022-10-12T06:46:15;1.40;;;1.40;;
8568;SDS011;4322;51.104;-4.162;2022-10-12T06:48:42;1.40;;;1.40;;
8568;SDS011;4322;51.104;-4.162;2022-10-12T06:51:12;1.80;;;1.80;;
8568;SDS011;4322;51.104;-4.162;2022-10-12T06:53:40;1.70;;;1.70;;
8568;SDS011;4322;51.104;-4.162;2022-10-12T06:56:08;1.53;;;1.53;;
8568;SDS011;4322;51.104;-4.162;2022-10-12T06:58:37;1.60;;;1.60;;
8568;SDS011;4322;51.104;-4.162;2022-10-12T07:01:06;1.57;;;1.57;;
8568;SDS011;4322;51.104;-4.162;2022-10-12T07:03:36;1.70;;;1.70;;
8568;SDS011;4322;51.104;-4.162;2022-10-12T07:06:04;2.03;;;2.03;;
8568;SDS011;4322;51.104;-4.162;2022-10-12T07:08:35;1.90;;;1.90;;
8568;SDS011;4322;51.104;-4.162;2022-10-12T07:11:04;2.50;;;2.40;;
8568;SDS011;4322;51.104;-4.162;2022-10-12T07:13:33;2.00;;;2.00;;
8568;SDS011;4322;51.104;-4.162;2022-10-12T07:16:01;2.50;;;2.40;;
8568;SDS011;4322;51.104;-4.162;2022-10-12T07:18:30;2.30;;;2.20;;
8568;SDS011;4322;51.104;-4.162;2022-10-12T07:20:58;2.37;;;2.27;;
8568;SDS011;4322;51.104;-4.162;2022-10-12T07:23:28;2.50;;;2.40;;
8568;SDS011;4322;51.104;-4.162;2022-10-12T07:25:58;2.30;;;2.20;;
8568;SDS011;4322;51.104;-4.162;2022-10-12T07:28:26;2.57;;;2.47;;
8568;SDS011;4322;51.104;-4.162;2022-10-12T07:30:58;2.70;;;2.60;;
8568;SDS011;4322;51.104;-4.162;2022-10-12T07:33:29;2.53;;;2.43;;
8568;SDS011;4322;51.104;-4.162;2022-10-12T07:35:59;2.60;;;2.50;;
8568;SDS011;4322;51.104;-4.162;2022-10-12T07:38:40;2.83;;;2.73;;
8568;SDS011;4322;51.104;-4.162;2022-10-12T07:41:12;3.00;;;2.90;;
8568;SDS011;4322;51.104;-4.162;2022-10-12T07:43:40;3.00;;;2.90;;
8568;SDS011;4322;51.104;-4.162;2022-10-12T07:46:09;2.83;;;2.73;;
8568;SDS011;4322;51.104;-4.162;2022-10-12T07:48:37;3.03;;;2.93;;
8568;SDS011;4322;51.104;-4.162;2022-10-12T07:51:14;3.17;;;3.07;;
8568;SDS011;4322;51.104;-4.162;2022-10-12T07:53:42;3.40;;;3.30;;
8568;SDS011;4322;51.104;-4.162;2022-10-12T07:56:11;3.30;;;3.20;;
8568;SDS011;4322;51.104;-4.162;2022-10-12T07:58:41;3.80;;;3.70;;
8568;SDS011;4322;51.104;-4.162;2022-10-12T08:01:10;3.73;;;3.63;;
8568;SDS011;4322;51.104;-4.162;2022-10-12T08:03:38;3.70;;;3.60;;
8568;SDS011;4322;51.104;-4.162;2022-10-12T08:06:08;4.20;;;4.00;;
8568;SDS011;4322;51.104;-4.162;2022-10-12T08:08:37;4.10;;;3.90;;
8568;SDS011;4322;51.104;-4.162;2022-10-12T08:11:05;3.70;;;3.60;;
8568;SDS011;4322;51.104;-4.162;2022-10-12T08:13:36;4.70;;;4.50;;
8568;SDS011;4322;51.104;-4.162;2022-10-12T08:16:05;4.90;;;4.70;;
8568;SDS011;4322;51.104;-4.162;2022-10-12T08:18:36;4.30;;;4.10;;
8568;SDS011;4322;51.104;-4.162;2022-10-12T08:21:04;4.03;;;3.87;;
8568;SDS011;4322;51.104;-4.162;2022-10-12T08:23:32;3.77;;;3.67;;
8568;SDS011;4322;51.104;-4.162;2022-10-12T08:26:01;4.40;;;4.20;;
8568;SDS011;4322;51.104;-4.162;2022-10-12T08:28:29;4.30;;;4.10;;
8568;SDS011;4322;51.104;-4.162;2022-10-12T08:31:03;4.20;;;4.00;;
8568;SDS011;4322;51.104;-4.162;2022-10-12T08:33:32;3.53;;;3.43;;
8568;SDS011;4322;51.104;-4.162;2022-10-12T08:36:00;3.80;;;3.70;;
8568;SDS011;4322;51.104;-4.162;2022-10-12T08:38:29;4.47;;;4.27;;
8568;SDS011;4322;51.104;-4.162;2022-10-12T08:40:59;3.93;;;3.80;;
8568;SDS011;4322;51.104;-4.162;2022-10-12T08:43:35;4.10;;;3.90;;
8568;SDS011;4322;51.104;-4.162;2022-10-12T08:46:16;3.87;;;3.77;;
8568;SDS011;4322;51.104;-4.162;2022-10-12T08:48:47;3.70;;;3.60;;
8568;SDS011;4322;51.104;-4.162;2022-10-12T08:51:19;4.33;;;4.13;;
8568;SDS011;4322;51.104;-4.162;2022-10-12T08:53:50;4.20;;;4.00;;
8568;SDS011;4322;51.104;-4.162;2022-10-12T08:56:21;3.83;;;3.73;;
8568;SDS011;4322;51.104;-4.162;2022-10-12T08:58:50;4.40;;;4.20;;
8568;SDS011;4322;51.104;-4.162;2022-10-12T09:01:22;3.67;;;3.57;;
8568;SDS011;4322;51.104;-4.162;2022-10-12T09:03:59;4.10;;;3.90;;
8568;SDS011;4322;51.104;-4.162;2022-10-12T09:06:38;4.20;;;4.00;;
8568;SDS011;4322;51.104;-4.162;2022-10-12T09:09:18;4.17;;;3.97;;
8568;SDS011;4322;51.104;-4.162;2022-10-12T09:12:10;3.47;;;3.37;;
8568;SDS011;4322;51.104;-4.162;2022-10-12T09:14:49;3.70;;;3.60;;
8568;SDS011;4322;51.104;-4.162;2022-10-12T09:17:23;3.70;;;3.60;;
8568;SDS011;4322;51.104;-4.162;2022-10-12T09:19:57;3.43;;;3.33;;
8568;SDS011;4322;51.104;-4.162;2022-10-12T09:22:28;3.97;;;3.87;;
8568;SDS011;4322;51.104;-4.162;2022-10-12T09:24:58;3.53;;;3.43;;
8568;SDS011;4322;51.104;-4.162;2022-10-12T09:27:29;2.97;;;2.87;;
8568;SDS011;4322;51.104;-4.162;2022-10-12T09:29:59;3.60;;;3.50;;
8568;SDS011;4322;51.104;-4.162;2022-10-12T09:32:44;3.50;;;3.40;;
8568;SDS011;4322;51.104;-4.162;2022-10-12T09:35:21;2.83;;;2.73;;
8568;SDS011;4322;51.104;-4.162;2022-10-12T09:37:51;3.43;;;3.33;;
8568;SDS011;4322;51.104;-4.162;2022-10-12T09:40:20;3.10;;;3.00;;
8568;SDS011;4322;51.104;-4.162;2022-10-12T09:42:51;3.00;;;2.90;;
8568;SDS011;4322;51.104;-4.162;2022-10-12T09:45:22;3.10;;;3.00;;
8568;SDS011;4322;51.104;-4.162;2022-10-12T09:48:10;3.07;;;2.97;;
8568;SDS011;4322;51.104;-4.162;2022-10-12T09:50:42;3.07;;;2.97;;
8568;SDS011;4322;51.104;-4.162;2022-10-12T09:53:16;3.27;;;3.17;;
8568;SDS011;4322;51.104;-4.162;2022-10-12T09:58:40;3.03;;;2.93;;
8568;SDS011;4322;51.104;-4.162;2022-10-12T10:01:17;3.10;;;3.00;;
8568;SDS011;4322;51.104;-4.162;2022-10-12T10:03:50;2.80;;;2.70;;
8568;SDS011;4322;51.104;-4.162;2022-10-12T10:06:34;2.77;;;2.67;;
8568;SDS011;4322;51.104;-4.162;2022-10-12T10:09:03;2.63;;;2.53;;
8568;SDS011;4322;51.104;-4.162;2022-10-12T10:11:32;2.73;;;2.63;;
8568;SDS011;4322;51.104;-4.162;2022-10-12T10:14:00;2.67;;;2.57;;
8568;SDS011;4322;51.104;-4.162;2022-10-12T10:16:29;3.23;;;3.13;;
8568;SDS011;4322;51.104;-4.162;2022-10-12T10:18:59;2.70;;;2.60;;
8568;SDS011;4322;51.104;-4.162;2022-10-12T10:21:30;2.70;;;2.60;;
8568;SDS011;4322;51.104;-4.162;2022-10-12T10:24:00;2.90;;;2.80;;
8568;SDS011;4322;51.104;-4.162;2022-10-12T10:26:49;2.83;;;2.73;;
8568;SDS011;4322;51.104;-4.162;2022-10-12T10:29:24;2.57;;;2.47;;
8568;SDS011;4322;51.104;-4.162;2022-10-12T10:32:06;2.60;;;2.50;;
8568;SDS011;4322;51.104;-4.162;2022-10-12T10:34:41;2.80;;;2.70;;
8568;SDS011;4322;51.104;-4.162;2022-10-12T10:37:12;2.87;;;2.77;;
8568;SDS011;4322;51.104;-4.162;2022-10-12T10:39:44;2.80;;;2.70;;
8568;SDS011;4322;51.104;-4.162;2022-10-12T10:42:16;2.73;;;2.63;;
8568;SDS011;4322;51.104;-4.162;2022-10-12T10:44:48;2.80;;;2.70;;
8568;SDS011;4322;51.104;-4.162;2022-10-12T10:47:18;2.40;;;2.30;;
8568;SDS011;4322;51.104;-4.162;2022-10-12T10:49:48;3.00;;;2.90;;
8568;SDS011;4322;51.104;-4.162;2022-10-12T10:52:22;2.77;;;2.67;;
8568;SDS011;4322;51.104;-4.162;2022-10-12T10:55:04;3.20;;;3.10;;
8568;SDS011;4322;51.104;-4.162;2022-10-12T10:57:42;2.83;;;2.73;;
8568;SDS011;4322;51.104;-4.162;2022-10-12T11:00:17;3.30;;;3.20;;
8568;SDS011;4322;51.104;-4.162;2022-10-12T11:03:06;2.90;;;2.80;;
8568;SDS011;4322;51.104;-4.162;2022-10-12T11:05:43;3.20;;;3.10;;
8568;SDS011;4322;51.104;-4.162;2022-10-12T11:08:15;3.20;;;3.10;;
8568;SDS011;4322;51.104;-4.162;2022-10-12T11:10:47;3.10;;;3.00;;
8568;SDS011;4322;51.104;-4.162;2022-10-12T11:13:20;3.53;;;3.43;;
8568;SDS011;4322;51.104;-4.162;2022-10-12T11:15:51;3.20;;;3.10;;
8568;SDS011;4322;51.104;-4.162;2022-10-12T11:18:25;3.53;;;3.43;;
8568;SDS011;4322;51.104;-4.162;2022-10-12T11:21:00;3.73;;;3.63;;
8568;SDS011;4322;51.104;-4.162;2022-10-12T11:23:34;5.30;;;5.10;;
8568;SDS011;4322;51.104;-4.162;2022-10-12T11:26:10;4.10;;;3.90;;
8568;SDS011;4322;51.104;-4.162;2022-10-12T11:28:45;3.57;;;3.47;;
8568;SDS011;4322;51.104;-4.162;2022-10-12T11:31:16;3.80;;;3.70;;
8568;SDS011;4322;51.104;-4.162;2022-10-12T11:33:48;3.50;;;3.40;;
8568;SDS011;4322;51.104;-4.162;2022-10-12T11:36:21;4.13;;;3.93;;
8568;SDS011;4322;51.104;-4.162;2022-10-12T11:38:53;3.90;;;3.80;;
8568;SDS011;4322;51.104;-4.162;2022-10-12T11:41:33;3.50;;;3.40;;
8568;SDS011;4322;51.104;-4.162;2022-10-12T11:44:34;4.47;;;4.27;;
8568;SDS011;4322;51.104;-4.162;2022-10-12T11:47:09;3.70;;;3.60;;
8568;SDS011;4322;51.104;-4.162;2022-10-12T11:49:45;3.57;;;3.47;;
8568;SDS011;4322;51.104;-4.162;2022-10-12T11:52:18;4.17;;;3.97;;
8568;SDS011;4322;51.104;-4.162;2022-10-12T11:54:54;3.60;;;3.50;;
8568;SDS011;4322;51.104;-4.162;2022-10-12T11:57:29;6.73;;;6.43;;
8568;SDS011;4322;51.104;-4.162;2022-10-12T12:00:02;4.50;;;4.30;;
8568;SDS011;4322;51.104;-4.162;2022-10-12T12:02:32;5.13;;;4.93;;
8568;SDS011;4322;51.104;-4.162;2022-10-12T12:05:08;4.73;;;4.53;;
8568;SDS011;4322;51.104;-4.162;2022-10-12T12:07:47;5.30;;;5.10;;
8568;SDS011;4322;51.104;-4.162;2022-10-12T12:13:29;4.50;;;4.30;;
8568;SDS011;4322;51.104;-4.162;2022-10-12T12:19:09;4.20;;;4.00;;
8568;SDS011;4322;51.104;-4.162;2022-10-12T12:22:18;5.00;;;4.80;;
8568;SDS011;4322;51.104;-4.162;2022-10-12T12:24:54;4.47;;;4.27;;
8568;SDS011;4322;51.104;-4.162;2022-10-12T12:27:30;4.40;;;4.20;;
8568;SDS011;4322;51.104;-4.162;2022-10-12T12:30:02;4.73;;;4.53;;
8568;SDS011;4322;51.104;-4.162;2022-10-12T12:32:40;5.50;;;5.30;;
8568;SDS011;4322;51.104;-4.162;2022-10-12T12:35:20;4.33;;;4.13;;
8568;SDS011;4322;51.104;-4.162;2022-10-12T12:38:01;5.30;;;5.10;;
8568;SDS011;4322;51.104;-4.162;2022-10-12T12:40:54;4.43;;;4.23;;
8568;SDS011;4322;51.104;-4.162;2022-10-12T12:43:34;4.90;;;4.70;;
8568;SDS011;4322;51.104;-4.162;2022-10-12T12:49:54;4.20;;;4.00;;
8568;SDS011;4322;51.104;-4.162;2022-10-12T12:52:26;4.53;;;4.33;;
8568;SDS011;4322;51.104;-4.162;2022-10-12T12:55:04;4.90;;;4.70;;
8568;SDS011;4322;51.104;-4.162;2022-10-12T12:58:00;4.23;;;4.03;;
8568;SDS011;4322;51.104;-4.162;2022-10-12T13:00:44;3.90;;;3.80;;
8568;SDS011;4322;51.104;-4.162;2022-10-12T13:03:26;3.90;;;3.80;;
8568;SDS011;4322;51.104;-4.162;2022-10-12T13:06:30;3.80;;;3.70;;
8568;SDS011;4322;51.104;-4.162;2022-10-12T13:12:23;4.23;;;4.03;;
8568;SDS011;4322;51.104;-4.162;2022-10-12T13:15:20;3.90;;;3.80;;
8568;SDS011;4322;51.104;-4.162;2022-10-12T13:21:17;3.80;;;3.70;;
8568;SDS011;4322;51.104;-4.162;2022-10-12T13:23:49;3.80;;;3.70;;
8568;SDS011;4322;51.104;-4.162;2022-10-12T13:26:21;3.97;;;3.83;;
8568;SDS011;4322;51.104;-4.162;2022-10-12T13:28:51;4.13;;;3.93;;
8568;SDS011;4322;51.104;-4.162;2022-10-12T13:31:24;3.90;;;3.80;;
8568;SDS011;4322;51.104;-4.162;2022-10-12T13:33:59;4.23;;;4.03;;
8568;SDS011;4322;51.104;-4.162;2022-10-12T13:36:33;4.57;;;4.37;;
8568;SDS011;4322;51.104;-4.162;2022-10-12T13:39:11;4.37;;;4.17;;
8568;SDS011;4322;51.104;-4.162;2022-10-12T13:41:41;4.77;;;4.57;;
8568;SDS011;4322;51.104;-4.162;2022-10-12T13:44:17;4.40;;;4.20;;
8568;SDS011;4322;51.104;-4.162;2022-10-12T13:46:49;3.63;;;3.53;;
8568;SDS011;4322;51.104;-4.162;2022-10-12T13:49:22;3.90;;;3.80;;
8568;SDS011;4322;51.104;-4.162;2022-10-12T13:51:52;4.60;;;4.40;;
8568;SDS011;4322;51.104;-4.162;2022-10-12T13:54:22;3.80;;;3.70;;
8568;SDS011;4322;51.104;-4.162;2022-10-12T13:56:53;4.33;;;4.13;;
8568;SDS011;4322;51.104;-4.162;2022-10-12T13:59:26;4.37;;;4.17;;
8568;SDS011;4322;51.104;-4.162;2022-10-12T14:01:58;3.50;;;3.40;;
8568;SDS011;4322;51.104;-4.162;2022-10-12T14:04:28;3.87;;;3.77;;
8568;SDS011;4322;51.104;-4.162;2022-10-12T14:06:58;4.10;;;3.90;;
8568;SDS011;4322;51.104;-4.162;2022-10-12T14:09:32;3.90;;;3.80;;
8568;SDS011;4322;51.104;-4.162;2022-10-12T14:12:07;3.80;;;3.70;;
8568;SDS011;4322;51.104;-4.162;2022-10-12T14:14:37;3.33;;;3.23;;
8568;SDS011;4322;51.104;-4.162;2022-10-12T14:17:11;3.67;;;3.57;;
8568;SDS011;4322;51.104;-4.162;2022-10-12T14:19:42;3.47;;;3.37;;
8568;SDS011;4322;51.104;-4.162;2022-10-12T14:22:12;3.90;;;3.80;;
8568;SDS011;4322;51.104;-4.162;2022-10-12T14:24:47;3.70;;;3.60;;
8568;SDS011;4322;51.104;-4.162;2022-10-12T14:27:20;3.57;;;3.47;;
8568;SDS011;4322;51.104;-4.162;2022-10-12T14:29:55;3.83;;;3.73;;
8568;SDS011;4322;51.104;-4.162;2022-10-12T14:35:37;3.90;;;3.80;;
8568;SDS011;4322;51.104;-4.162;2022-10-12T14:44:05;4.10;;;3.90;;
8568;SDS011;4322;51.104;-4.162;2022-10-12T14:46:37;3.97;;;3.83;;
8568;SDS011;4322;51.104;-4.162;2022-10-12T14:49:11;3.87;;;3.77;;
8568;SDS011;4322;51.104;-4.162;2022-10-12T14:51:43;4.10;;;3.90;;
8568;SDS011;4322;51.104;-4.162;2022-10-12T14:54:12;4.17;;;3.97;;
8568;SDS011;4322;51.104;-4.162;2022-10-12T14:56:40;4.50;;;4.30;;
8568;SDS011;4322;51.104;-4.162;2022-10-12T14:59:08;5.07;;;4.87;;
8568;SDS011;4322;51.104;-4.162;2022-10-12T15:01:36;4.70;;;4.50;;
8568;SDS011;4322;51.104;-4.162;2022-10-12T15:04:08;4.30;;;4.10;;
8568;SDS011;4322;51.104;-4.162;2022-10-12T15:06:38;4.17;;;3.97;;
8568;SDS011;4322;51.104;-4.162;2022-10-12T15:09:10;4.23;;;4.03;;
8568;SDS011;4322;51.104;-4.162;2022-10-12T15:11:38;4.50;;;4.30;;
8568;SDS011;4322;51.104;-4.162;2022-10-12T15:14:07;4.23;;;4.03;;
8568;SDS011;4322;51.104;-4.162;2022-10-12T15:16:35;4.40;;;4.20;;
8568;SDS011;4322;51.104;-4.162;2022-10-12T15:19:04;4.87;;;4.67;;
8568;SDS011;4322;51.104;-4.162;2022-10-12T15:21:33;4.93;;;4.73;;
8568;SDS011;4322;51.104;-4.162;2022-10-12T15:24:01;5.00;;;4.80;;
8568;SDS011;4322;51.104;-4.162;2022-10-12T15:26:29;4.93;;;4.73;;
8568;SDS011;4322;51.104;-4.162;2022-10-12T15:28:57;4.83;;;4.63;;
8568;SDS011;4322;51.104;-4.162;2022-10-12T15:31:25;3.97;;;3.87;;
8568;SDS011;4322;51.104;-4.162;2022-10-12T15:33:53;4.40;;;4.20;;
8568;SDS011;4322;51.104;-4.162;2022-10-12T15:36:21;4.93;;;4.73;;
8568;SDS011;4322;51.104;-4.162;2022-10-12T15:38:50;4.37;;;4.17;;
8568;SDS011;4322;51.104;-4.162;2022-10-12T15:41:25;5.03;;;4.83;;
8568;SDS011;4322;51.104;-4.162;2022-10-12T15:43:53;4.77;;;4.57;;
8568;SDS011;4322;51.104;-4.162;2022-10-12T15:46:21;3.93;;;3.80;;
8568;SDS011;4322;51.104;-4.162;2022-10-12T15:48:49;4.60;;;4.40;;
8568;SDS011;4322;51.104;-4.162;2022-10-12T15:51:17;4.23;;;4.03;;
8568;SDS011;4322;51.104;-4.162;2022-10-12T15:53:48;5.20;;;5.00;;
8568;SDS011;4322;51.104;-4.162;2022-10-12T15:56:17;5.40;;;5.20;;